Time;durP1;ratioP1;P1;durP2;ratioP2;P2;SDS_P1;SDS_P2;PMS_P1;PMS_P2;Temp;Humidity;BMP_temperature;BMP_pressure;BME280_temperature;BME280_humidity;BME280_pressure;Samples;Min_cycle;Max_cycle;Signal;HPM_P1;HPM_P2
2021/06/23 00:01:05;;;;;;;3.97;1.50;;;;;;;;;;5032217;28;20435;-53
2021/06/23 00:03:51;;;;;;;4.23;1.70;;;;;;;;;;5031797;28;20038;-52
2021/06/23 00:06:22;;;;;;;4.23;2.00;;;;;;;;;;5032725;28;20056;-53
2021/06/23 00:09:20;;;;;;;4.03;1.97;;;;;;;;;;5032598;28;20026;-53
2021/06/23 00:11:53;;;;;;;7.03;1.83;;;;;;;;;;5034509;28;20119;-53
2021/06/23 00:14:22;;;;;;;;;;;;;;;;;;5036652;28;20052;-52
2021/06/23 00:17:06;;;;;;;;;;;;;;;;;;;;;
2021/06/23 00:19:33;;;;;;;7.57;2.17;;;;;;;;;;5034037;28;20043;-53
2021/06/23 00:22:00;;;;;;;6.53;1.87;;;;;;;;;;5036655;28;20024;-53
2021/06/23 00:24:27;;;;;;;5.27;1.33;;;;;;;;;;5036490;28;20021;-53
2021/06/23 00:26:54;;;;;;;5.30;2.07;;;;;;;;;;5036468;28;20404;-53
2021/06/23 00:29:20;;;;;;;6.17;1.23;;;;;;;;;;5036360;28;20034;-53
2021/06/23 00:31:47;;;;;;;2.77;1.30;;;;;;;;;;5036443;28;20029;-53
2021/06/23 00:34:16;;;;;;;2.40;1.13;;;;;;;;;;5036401;28;20087;-52
2021/06/23 00:36:43;;;;;;;2.47;0.90;;;;;;;;;;5036320;28;20112;-53
2021/06/23 00:39:10;;;;;;;3.63;1.53;;;;;;;;;;5036238;28;20044;-53
2021/06/23 00:41:36;;;;;;;3.33;1.37;;;;;;;;;;5037692;28;20493;-53
2021/06/23 00:44:03;;;;;;;5.03;1.40;;;;;;;;;;5036106;28;20065;-53
2021/06/23 00:46:30;;;;;;;5.33;1.20;;;;;;;;;;5036068;28;20395;-53
2021/06/23 00:48:58;;;;;;;5.67;1.30;;;;;;;;;;5036469;28;20021;-53
2021/06/23 00:51:26;;;;;;;5.13;1.50;;;;;;;;;;5036065;28;20036;-53
2021/06/23 00:53:52;;;;;;;3.33;1.20;;;;;;;;;;5035981;28;20029;-53
2021/06/23 00:56:19;;;;;;;9.93;1.13;;;;;;;;;;5036088;28;20109;-53
2021/06/23 00:59:00;;;;;;;1.77;0.90;;;;;;;;;;5035870;28;20033;-53
2021/06/23 01:01:29;;;;;;;1.97;0.80;;;;;;;;;;5035817;28;20095;-53
2021/06/23 01:03:56;;;;;;;2.57;0.93;;;;;;;;;;5035959;28;20096;-53
2021/06/23 01:06:23;;;;;;;3.30;1.00;;;;;;;;;;5035704;28;20078;-53
2021/06/23 01:08:50;;;;;;;4.77;1.07;;;;;;;;;;5035870;28;20032;-53
2021/06/23 01:11:18;;;;;;;2.17;1.70;;;;;;;;;;5035810;28;20029;-53
2021/06/23 01:13:59;;;;;;;3.50;1.30;;;;;;;;;;5035677;28;20021;-53
2021/06/23 01:16:29;;;;;;;2.20;1.03;;;;;;;;;;5035589;28;20036;-53
2021/06/23 01:18:57;;;;;;;4.23;1.00;;;;;;;;;;5035343;28;20029;-53
2021/06/23 01:21:24;;;;;;;1.83;1.00;;;;;;;;;;5035180;28;20034;-53
2021/06/23 01:23:51;;;;;;;3.70;0.80;;;;;;;;;;5035577;28;20100;-53
2021/06/23 01:26:18;;;;;;;1.70;1.00;;;;;;;;;;5035492;28;20426;-52
2021/06/23 01:28:44;;;;;;;2.47;1.27;;;;;;;;;;5035535;28;20049;-53
2021/06/23 01:31:12;;;;;;;4.67;1.33;;;;;;;;;;5035542;28;20057;-53
2021/06/23 01:33:39;;;;;;;3.47;1.30;;;;;;;;;;5035322;28;20090;-53
2021/06/23 01:36:06;;;;;;;2.23;1.00;;;;;;;;;;5035283;28;20037;-53
2021/06/23 01:38:33;;;;;;;4.30;1.10;;;;;;;;;;5035317;28;20040;-53
2021/06/23 01:41:00;;;;;;;4.50;1.30;;;;;;;;;;5036326;28;20140;-53
2021/06/23 01:43:27;;;;;;;10.33;1.10;;;;;;;;;;5035371;28;20030;-53
2021/06/23 01:45:53;;;;;;;3.27;1.07;;;;;;;;;;5035027;28;20391;-53
2021/06/23 01:48:21;;;;;;;2.90;1.20;;;;;;;;;;5035179;28;20026;-53
2021/06/23 01:50:55;;;;;;;1.90;0.83;;;;;;;;;;5035148;28;20030;-53
2021/06/23 01:53:22;;;;;;;4.47;1.23;;;;;;;;;;5034995;28;20025;-53
2021/06/23 01:55:49;;;;;;;1.80;1.10;;;;;;;;;;5034894;28;20075;-53
2021/06/23 01:58:16;;;;;;;3.87;1.13;;;;;;;;;;5034860;28;20021;-53
2021/06/23 02:00:49;;;;;;;4.33;1.30;;;;;;;;;;5034761;28;20025;-53
2021/06/23 02:03:18;;;;;;;3.57;1.00;;;;;;;;;;5034825;28;20032;-53
2021/06/23 02:05:47;;;;;;;4.30;1.07;;;;;;;;;;5034729;28;20025;-53
2021/06/23 02:08:17;;;;;;;4.07;1.40;;;;;;;;;;5034732;28;20017;-53
2021/06/23 02:10:44;;;;;;;3.20;1.30;;;;;;;;;;5034702;28;20025;-53
2021/06/23 02:13:29;;;;;;;3.37;1.00;;;;;;;;;;5034473;28;20498;-53
2021/06/23 02:16:05;;;;;;;3.95;1.20;;;;;;;;;;5034482;28;20437;-53
2021/06/23 02:18:31;;;;;;;2.10;1.07;;;;;;;;;;5034367;28;20025;-53
2021/06/23 02:20:59;;;;;;;4.93;1.00;;;;;;;;;;5034230;28;20045;-53
2021/06/23 02:23:26;;;;;;;3.03;1.10;;;;;;;;;;5034446;28;20049;-52
2021/06/23 02:25:53;;;;;;;2.73;1.23;;;;;;;;;;5034360;28;20025;-53
2021/06/23 02:28:20;;;;;;;4.67;1.40;;;;;;;;;;5034414;28;20093;-52
2021/06/23 02:30:47;;;;;;;6.47;2.40;;;;;;;;;;5034261;28;20048;-52
2021/06/23 02:33:14;;;;;;;12.20;2.57;;;;;;;;;;5033296;28;20022;-52
2021/06/23 02:35:41;;;;;;;6.30;2.70;;;;;;;;;;5034430;28;20026;-52
2021/06/23 02:38:08;;;;;;;3.93;1.80;;;;;;;;;;5034050;28;20013;-52
2021/06/23 02:40:35;;;;;;;4.17;2.07;;;;;;;;;;5035489;28;20120;-52
2021/06/23 02:43:02;;;;;;;5.07;2.40;;;;;;;;;;5014450;28;20044;-52
2021/06/23 02:45:29;;;;;;;3.80;1.67;;;;;;;;;;5014113;28;20077;-52
2021/06/23 02:47:56;;;;;;;6.87;1.80;;;;;;;;;;5014217;28;20030;-52
2021/06/23 02:50:24;;;;;;;6.73;1.80;;;;;;;;;;5014078;28;20029;-52
2021/06/23 02:52:51;;;;;;;2.43;1.30;;;;;;;;;;5013934;28;20026;-52
2021/06/23 02:55:21;;;;;;;7.10;2.53;;;;;;;;;;5014092;28;20084;-52
2021/06/23 02:57:49;;;;;;;4.47;2.37;;;;;;;;;;5014044;28;20026;-52
2021/06/23 03:00:16;;;;;;;5.77;2.17;;;;;;;;;;5014167;28;20455;-52
2021/06/23 03:02:43;;;;;;;4.73;2.17;;;;;;;;;;5014096;28;20105;-52
2021/06/23 03:05:10;;;;;;;7.47;2.60;;;;;;;;;;5013744;28;20088;-52
2021/06/23 03:07:36;;;;;;;4.30;2.30;;;;;;;;;;5013769;28;20022;-52
2021/06/23 03:10:05;;;;;;;4.07;2.00;;;;;;;;;;5013852;28;20080;-53
2021/06/23 03:12:32;;;;;;;4.13;2.03;;;;;;;;;;5013746;28;20033;-52
2021/06/23 03:14:59;;;;;;;4.13;1.53;;;;;;;;;;5013646;28;20054;-52
2021/06/23 03:17:25;;;;;;;5.73;1.73;;;;;;;;;;5013634;28;20488;-53
2021/06/23 03:19:52;;;;;;;4.57;1.77;;;;;;;;;;5013322;28;20030;-52
2021/06/23 03:22:19;;;;;;;5.50;1.43;;;;;;;;;;5013402;28;20150;-53
2021/06/23 03:24:46;;;;;;;3.83;1.60;;;;;;;;;;5013328;28;20028;-53
2021/06/23 03:27:13;;;;;;;3.27;1.17;;;;;;;;;;5013413;28;20056;-53
2021/06/23 03:29:39;;;;;;;4.90;1.77;;;;;;;;;;5013141;28;20033;-53
2021/06/23 03:32:09;;;;;;;3.83;1.60;;;;;;;;;;5013218;28;20048;-53
2021/06/23 03:34:44;;;;;;;4.13;1.40;;;;;;;;;;4993671;28;20055;-52
2021/06/23 03:37:12;;;;;;;4.57;1.80;;;;;;;;;;4993544;28;20050;-52
2021/06/23 03:39:39;;;;;;;6.50;1.60;;;;;;;;;;4993629;28;20461;-52
2021/06/23 03:42:19;;;;;;;4.57;1.27;;;;;;;;;;5007132;28;20050;-52
2021/06/23 03:44:45;;;;;;;4.53;1.27;;;;;;;;;;5013034;28;20030;-52
2021/06/23 03:47:12;;;;;;;1.93;1.07;;;;;;;;;;5013196;28;20030;-52
2021/06/23 03:49:39;;;;;;;2.80;1.40;;;;;;;;;;5013210;28;20038;-52
2021/06/23 03:52:06;;;;;;;2.83;1.00;;;;;;;;;;5013116;28;20038;-52
2021/06/23 03:54:33;;;;;;;1.73;1.00;;;;;;;;;;5012926;28;20052;-52
2021/06/23 03:57:00;;;;;;;8.53;1.23;;;;;;;;;;5012977;28;20026;-52
2021/06/23 03:59:27;;;;;;;3.43;1.10;;;;;;;;;;5012751;28;20072;-52
2021/06/23 04:01:53;;;;;;;3.43;1.23;;;;;;;;;;5012855;28;20477;-52
2021/06/23 04:04:20;;;;;;;3.00;0.97;;;;;;;;;;5012803;28;20050;-52
2021/06/23 04:06:47;;;;;;;3.30;1.13;;;;;;;;;;5012876;28;20075;-52
2021/06/23 04:09:14;;;;;;;2.17;1.10;;;;;;;;;;5012895;28;20113;-52
2021/06/23 04:11:41;;;;;;;3.63;1.20;;;;;;;;;;5012968;28;20037;-52
2021/06/23 04:14:07;;;;;;;1.03;0.70;;;;;;;;;;5012888;28;20076;-53
2021/06/23 04:16:34;;;;;;;2.43;0.90;;;;;;;;;;5012850;28;20432;-52
2021/06/23 04:19:01;;;;;;;2.23;1.00;;;;;;;;;;5012724;28;20030;-52
2021/06/23 04:21:28;;;;;;;2.87;0.93;;;;;;;;;;5012847;28;20034;-52
2021/06/23 04:23:55;;;;;;;1.93;0.90;;;;;;;;;;5012752;28;20080;-52
2021/06/23 04:26:21;;;;;;;4.07;1.40;;;;;;;;;;5012812;28;20072;-52
2021/06/23 04:28:49;;;;;;;3.70;1.10;;;;;;;;;;5012723;28;20026;-52
2021/06/23 04:31:15;;;;;;;3.70;1.00;;;;;;;;;;5012820;28;20445;-52
2021/06/23 04:33:43;;;;;;;5.00;1.37;;;;;;;;;;5012855;28;20045;-52
2021/06/23 04:36:10;;;;;;;5.33;1.53;;;;;;;;;;5012688;28;20026;-52
2021/06/23 04:38:37;;;;;;;2.40;1.13;;;;;;;;;;5012758;28;20026;-52
2021/06/23 04:41:04;;;;;;;3.63;1.33;;;;;;;;;;5014294;28;20376;-53
2021/06/23 04:43:31;;;;;;;4.00;1.50;;;;;;;;;;5012501;28;20033;-52
2021/06/23 04:45:58;;;;;;;3.97;1.30;;;;;;;;;;5012582;28;20389;-52
2021/06/23 04:48:25;;;;;;;4.23;1.40;;;;;;;;;;5012705;28;20022;-52
2021/06/23 04:50:51;;;;;;;5.70;1.47;;;;;;;;;;5012521;28;20029;-52
2021/06/23 04:53:18;;;;;;;4.43;1.80;;;;;;;;;;5012513;28;20108;-52
2021/06/23 04:55:45;;;;;;;4.17;1.30;;;;;;;;;;5012518;28;20045;-52
2021/06/23 04:58:12;;;;;;;4.43;1.30;;;;;;;;;;5015669;28;20472;-52
2021/06/23 05:00:38;;;;;;;2.50;1.30;;;;;;;;;;5016243;28;20049;-52
2021/06/23 05:03:05;;;;;;;7.60;1.43;;;;;;;;;;5016252;28;20030;-52
2021/06/23 05:05:32;;;;;;;3.57;1.13;;;;;;;;;;5016112;28;20022;-52
2021/06/23 05:07:59;;;;;;;1.67;0.97;;;;;;;;;;5016174;28;20030;-52
2021/06/23 05:10:25;;;;;;;5.00;1.33;;;;;;;;;;5015964;28;20434;-52
2021/06/23 05:12:52;;;;;;;2.57;0.93;;;;;;;;;;5016053;28;20432;-52
2021/06/23 05:15:19;;;;;;;1.80;0.90;;;;;;;;;;5015820;28;20038;-52
2021/06/23 05:17:46;;;;;;;2.83;0.90;;;;;;;;;;5015934;28;20084;-52
2021/06/23 05:20:13;;;;;;;2.23;0.87;;;;;;;;;;5015763;28;20073;-52
2021/06/23 05:22:40;;;;;;;3.23;0.80;;;;;;;;;;5015825;28;20032;-52
2021/06/23 05:25:07;;;;;;;3.60;1.03;;;;;;;;;;5016017;28;20064;-52
2021/06/23 05:27:34;;;;;;;2.97;1.23;;;;;;;;;;5015759;28;20087;-52
2021/06/23 05:30:01;;;;;;;3.43;1.40;;;;;;;;;;5015641;28;20029;-52
2021/06/23 05:32:28;;;;;;;4.80;1.87;;;;;;;;;;5015603;28;20116;-52
2021/06/23 05:34:54;;;;;;;3.37;1.47;;;;;;;;;;5015736;28;20029;-52
2021/06/23 05:37:21;;;;;;;4.80;1.53;;;;;;;;;;4997952;28;20033;-52
2021/06/23 05:39:48;;;;;;;1.73;1.03;;;;;;;;;;4997814;28;20485;-52
2021/06/23 05:42:15;;;;;;;2.13;1.17;;;;;;;;;;5016793;28;20124;-52
2021/06/23 05:44:41;;;;;;;2.73;1.00;;;;;;;;;;5015294;28;20030;-52
2021/06/23 05:47:08;;;;;;;4.97;1.40;;;;;;;;;;5015322;28;20029;-51
2021/06/23 05:49:35;;;;;;;2.93;1.73;;;;;;;;;;5015276;28;20065;-52
2021/06/23 05:52:03;;;;;;;1.37;0.87;;;;;;;;;;5015431;28;20187;-52
2021/06/23 05:54:30;;;;;;;6.37;1.30;;;;;;;;;;5015100;28;20411;-52
2021/06/23 05:56:57;;;;;;;4.37;1.10;;;;;;;;;;5015240;28;20021;-52
2021/06/23 05:59:24;;;;;;;8.33;2.87;;;;;;;;;;5014954;28;20404;-52
2021/06/23 06:01:51;;;;;;;3.43;1.40;;;;;;;;;;4997492;28;20022;-52
2021/06/23 06:04:18;;;;;;;5.07;1.30;;;;;;;;;;5014937;28;20088;-52
2021/06/23 06:06:45;;;;;;;2.97;0.90;;;;;;;;;;4997677;28;20106;-52
2021/06/23 06:09:11;;;;;;;9.70;1.60;;;;;;;;;;5013792;28;20033;-52
2021/06/23 06:11:38;;;;;;;2.57;1.10;;;;;;;;;;5014819;28;20417;-53
2021/06/23 06:14:05;;;;;;;5.23;1.20;;;;;;;;;;5014799;28;20041;-52
2021/06/23 06:16:32;;;;;;;2.87;1.23;;;;;;;;;;5014697;28;20026;-52
2021/06/23 06:18:59;;;;;;;5.83;2.10;;;;;;;;;;5014962;28;20358;-51
2021/06/23 06:21:26;;;;;;;1.87;0.97;;;;;;;;;;5014804;28;20042;-52
2021/06/23 06:23:53;;;;;;;2.43;1.20;;;;;;;;;;5014638;28;20022;-52
2021/06/23 06:26:20;;;;;;;2.90;1.30;;;;;;;;;;5014633;28;20045;-51
2021/06/23 06:28:47;;;;;;;3.67;1.40;;;;;;;;;;5014512;28;20101;-52
2021/06/23 06:31:14;;;;;;;1.93;1.00;;;;;;;;;;5014519;28;20436;-51
2021/06/23 06:33:41;;;;;;;2.70;0.93;;;;;;;;;;5014546;28;20511;-51
2021/06/23 06:36:08;;;;;;;2.27;0.90;;;;;;;;;;5014495;28;20097;-52
2021/06/23 06:38:35;;;;;;;3.93;0.90;;;;;;;;;;5014340;28;20080;-51
2021/06/23 06:41:02;;;;;;;2.17;1.00;;;;;;;;;;5015981;28;20041;-51
2021/06/23 06:43:29;;;;;;;2.37;0.90;;;;;;;;;;4994665;28;20074;-52
2021/06/23 06:45:56;;;;;;;3.93;0.90;;;;;;;;;;4994540;28;20054;-51
2021/06/23 06:48:24;;;;;;;2.30;0.80;;;;;;;;;;4994679;28;20034;-51
2021/06/23 06:50:51;;;;;;;3.33;1.00;;;;;;;;;;4994661;28;20041;-52
2021/06/23 06:53:18;;;;;;;2.10;1.00;;;;;;;;;;4994469;28;20405;-51
2021/06/23 06:55:45;;;;;;;2.97;1.30;;;;;;;;;;4994342;28;20081;-52
2021/06/23 06:58:13;;;;;;;1.90;0.70;;;;;;;;;;4994478;28;20093;-51
2021/06/23 07:00:39;;;;;;;2.80;1.10;;;;;;;;;;4994271;28;20085;-51
2021/06/23 07:03:06;;;;;;;1.67;0.90;;;;;;;;;;4994284;28;20034;-52
2021/06/23 07:05:33;;;;;;;3.03;1.07;;;;;;;;;;4994265;28;20393;-52
2021/06/23 07:08:00;;;;;;;3.40;1.10;;;;;;;;;;4994263;28;20101;-51
2021/06/23 07:10:27;;;;;;;3.67;0.77;;;;;;;;;;4994195;28;20045;-52
2021/06/23 07:12:54;;;;;;;2.13;0.90;;;;;;;;;;4994245;28;20026;-52
2021/06/23 07:15:21;;;;;;;2.57;0.87;;;;;;;;;;4994096;28;20049;-51
2021/06/23 07:17:51;;;;;;;1.47;0.57;;;;;;;;;;4994116;28;20477;-51
2021/06/23 07:20:18;;;;;;;1.63;0.80;;;;;;;;;;4993477;28;20446;-52
2021/06/23 07:22:45;;;;;;;2.30;0.90;;;;;;;;;;4994009;28;20027;-52
2021/06/23 07:25:12;;;;;;;3.77;1.00;;;;;;;;;;4993925;28;20030;-51
2021/06/23 07:27:39;;;;;;;2.80;0.80;;;;;;;;;;4993939;28;20030;-52
2021/06/23 07:30:06;;;;;;;2.03;0.70;;;;;;;;;;4993831;28;20122;-51
2021/06/23 07:32:46;;;;;;;1.20;0.80;;;;;;;;;;4993808;28;20565;-52
2021/06/23 07:37:58;;;;;;;2.23;0.93;;;;;;;;;;4993992;28;20041;-51
2021/06/23 07:41:07;;;;;;;4.03;0.93;;;;;;;;;;4993777;28;20197;-52
2021/06/23 07:43:15;;;;;;;2.70;0.87;;;;;;;;;;5005995;28;20053;-52
2021/06/23 07:45:46;;;;;;;2.27;1.07;;;;;;;;;;5013300;28;20026;-51
2021/06/23 07:48:13;;;;;;;5.27;1.10;;;;;;;;;;5013230;28;20073;-51
2021/06/23 07:50:47;;;;;;;2.67;1.30;;;;;;;;;;5013238;28;20049;-52
2021/06/23 07:55:45;;;;;;;2.20;1.00;;;;;;;;;;5013429;28;20033;-51
2021/06/23 08:09:34;;;;;;;4.32;0.90;;;;;;;;;;5013026;28;20125;-52
2021/06/23 08:12:15;;;;;;;2.80;1.00;;;;;;;;;;5012943;28;20068;-51
2021/06/23 08:14:42;;;;;;;1.33;0.80;;;;;;;;;;5012888;28;20570;-51
2021/06/23 08:17:09;;;;;;;2.90;1.17;;;;;;;;;;5013008;28;20105;-51
2021/06/23 08:19:37;;;;;;;4.07;1.33;;;;;;;;;;5012905;28;20431;-52
2021/06/23 08:22:04;;;;;;;4.20;0.97;;;;;;;;;;5012825;28;20465;-51
2021/06/23 08:24:31;;;;;;;3.60;1.10;;;;;;;;;;5012811;28;20133;-51
2021/06/23 08:26:58;;;;;;;5.00;0.90;;;;;;;;;;5012788;28;20122;-52
2021/06/23 08:29:24;;;;;;;3.67;1.10;;;;;;;;;;5012854;28;20033;-51
2021/06/23 08:31:51;;;;;;;2.90;1.30;;;;;;;;;;5013956;28;20025;-51
2021/06/23 08:34:18;;;;;;;1.50;1.00;;;;;;;;;;5016718;28;20469;-52
2021/06/23 08:36:45;;;;;;;2.83;1.00;;;;;;;;;;5016663;28;20458;-52
2021/06/23 08:39:11;;;;;;;3.67;1.23;;;;;;;;;;5016657;28;20030;-51
2021/06/23 08:41:38;;;;;;;1.80;0.87;;;;;;;;;;5017481;28;20129;-52
2021/06/23 08:44:05;;;;;;;2.03;0.87;;;;;;;;;;5016459;28;20034;-51
2021/06/23 08:46:32;;;;;;;5.53;1.17;;;;;;;;;;5016584;28;20029;-52
2021/06/23 08:49:01;;;;;;;5.30;1.03;;;;;;;;;;5016401;28;20081;-51
2021/06/23 08:51:28;;;;;;;2.17;0.97;;;;;;;;;;5016465;28;20081;-51
2021/06/23 08:53:55;;;;;;;13.10;1.40;;;;;;;;;;5016278;28;20037;-51
2021/06/23 08:56:22;;;;;;;4.80;1.30;;;;;;;;;;5016395;28;20030;-50
2021/06/23 08:58:48;;;;;;;2.07;1.00;;;;;;;;;;5016252;28;20034;-51
2021/06/23 09:01:15;;;;;;;6.30;1.10;;;;;;;;;;5016246;28;20038;-51
2021/06/23 09:04:08;;;;;;;3.20;0.90;;;;;;;;;;5016138;28;20528;-52
2021/06/23 09:06:54;;;;;;;5.13;0.97;;;;;;;;;;5012886;28;20041;-51
2021/06/23 09:09:36;;;;;;;3.30;1.23;;;;;;;;;;5016034;28;20437;-51
2021/06/23 09:12:04;;;;;;;2.43;1.50;;;;;;;;;;5015971;28;20385;-51
2021/06/23 09:14:32;;;;;;;5.10;2.00;;;;;;;;;;5015848;28;20452;-51
2021/06/23 09:17:10;;;;;;;1.90;1.00;;;;;;;;;;5016097;28;20052;-52
2021/06/23 09:19:38;;;;;;;4.47;1.60;;;;;;;;;;5015761;28;20041;-52
2021/06/23 09:22:06;;;;;;;4.00;1.10;;;;;;;;;;5015839;28;20101;-51
2021/06/23 09:24:42;;;;;;;2.07;1.17;;;;;;;;;;5015838;28;20363;-52
2021/06/23 09:27:19;;;;;;;3.23;0.90;;;;;;;;;;5015779;28;20422;-51
2021/06/23 09:29:46;;;;;;;16.23;3.73;;;;;;;;;;5015669;28;20024;-51
2021/06/23 09:32:13;;;;;;;6.40;1.07;;;;;;;;;;5015778;28;20028;-51
2021/06/23 09:34:47;;;;;;;4.33;1.27;;;;;;;;;;5015647;28;20029;-52
2021/06/23 09:37:46;;;;;;;8.38;1.40;;;;;;;;;;5015661;28;20041;-52
2021/06/23 09:40:21;;;;;;;4.00;1.00;;;;;;;;;;4972213;28;20042;-51
2021/06/23 09:42:49;;;;;;;1.25;0.82;;;;;;;;;;5016520;28;20061;-51
2021/06/23 09:45:16;;;;;;;5.40;1.33;;;;;;;;;;5015443;28;20097;-51
2021/06/23 09:47:46;;;;;;;5.33;1.23;;;;;;;;;;5015470;28;20033;-52
2021/06/23 09:50:23;;;;;;;3.77;1.13;;;;;;;;;;5015437;28;20105;-51
2021/06/23 09:52:55;;;;;;;2.90;1.10;;;;;;;;;;5016029;28;20018;-51
2021/06/23 09:55:22;;;;;;;1.60;1.10;;;;;;;;;;5015183;28;20034;-51
2021/06/23 09:58:29;;;;;;;5.60;1.20;;;;;;;;;;5015392;28;20097;-51
2021/06/23 10:01:16;;;;;;;5.53;1.27;;;;;;;;;;4935386;29;20036;-51
2021/06/23 10:03:54;;;;;;;2.90;1.00;;;;;;;;;;4935328;29;20048;-51
2021/06/23 10:06:20;;;;;;;4.17;1.43;;;;;;;;;;4991944;28;20030;-52
2021/06/23 10:08:47;;;;;;;2.23;1.20;;;;;;;;;;5015122;28;20415;-52
2021/06/23 10:11:14;;;;;;;5.20;1.20;;;;;;;;;;5014948;28;20018;-52
2021/06/23 10:13:41;;;;;;;7.17;2.30;;;;;;;;;;5014922;28;20026;-51
2021/06/23 10:16:08;;;;;;;5.23;1.43;;;;;;;;;;5014823;28;20380;-52
2021/06/23 10:18:35;;;;;;;3.80;1.53;;;;;;;;;;5014693;28;20052;-51
2021/06/23 10:21:06;;;;;;;4.07;1.40;;;;;;;;;;5014770;28;20041;-52
2021/06/23 10:23:33;;;;;;;3.60;1.50;;;;;;;;;;5014608;28;20080;-51
2021/06/23 10:26:00;;;;;;;3.27;1.70;;;;;;;;;;5014641;28;20022;-52
2021/06/23 10:28:27;;;;;;;3.33;1.60;;;;;;;;;;5014691;28;20026;-52
2021/06/23 10:30:54;;;;;;;4.33;1.40;;;;;;;;;;5014605;28;20275;-51
2021/06/23 10:33:21;;;;;;;2.20;1.10;;;;;;;;;;4996923;28;20485;-52
2021/06/23 10:35:49;;;;;;;4.07;1.67;;;;;;;;;;5014484;28;20030;-52
2021/06/23 10:38:17;;;;;;;8.50;1.80;;;;;;;;;;5014453;28;20022;-51
2021/06/23 10:40:43;;;;;;;5.10;1.60;;;;;;;;;;5014343;28;20037;-52
2021/06/23 10:43:12;;;;;;;5.97;1.40;;;;;;;;;;5015580;28;20177;-51
2021/06/23 10:45:47;;;;;;;5.80;1.70;;;;;;;;;;5014462;28;20034;-51
2021/06/23 10:48:14;;;;;;;5.17;1.57;;;;;;;;;;5014293;28;20109;-51
2021/06/23 10:50:41;;;;;;;4.03;1.23;;;;;;;;;;5014353;28;20101;-52
2021/06/23 10:53:26;;;;;;;2.07;1.13;;;;;;;;;;5014212;28;20018;-51
2021/06/23 10:55:52;;;;;;;6.30;1.90;;;;;;;;;;5013398;28;20030;-52
2021/06/23 10:58:25;;;;;;;2.30;1.33;;;;;;;;;;5014003;28;20038;-51
2021/06/23 11:01:05;;;;;;;5.13;2.27;;;;;;;;;;5013907;28;20038;-52
2021/06/23 11:03:32;;;;;;;2.63;1.40;;;;;;;;;;5014183;28;20124;-52
2021/06/23 11:05:58;;;;;;;7.80;1.50;;;;;;;;;;5014048;28;20044;-51
2021/06/23 11:08:33;;;;;;;4.17;1.60;;;;;;;;;;5014097;28;20374;-52
2021/06/23 11:11:01;;;;;;;3.78;1.55;;;;;;;;;;4996288;28;20545;-51
2021/06/23 11:13:29;;;;;;;4.57;1.33;;;;;;;;;;5013824;28;20026;-52
2021/06/23 11:15:56;;;;;;;6.93;2.10;;;;;;;;;;5013753;28;20029;-52
2021/06/23 11:18:27;;;;;;;3.10;1.60;;;;;;;;;;5013621;28;20545;-51
2021/06/23 11:20:57;;;;;;;2.47;1.50;;;;;;;;;;5013557;28;20492;-51
2021/06/23 11:23:42;;;;;;;2.67;1.60;;;;;;;;;;5013539;28;20033;-51
2021/06/23 11:26:10;;;;;;;14.20;2.00;;;;;;;;;;4995958;28;20029;-51
2021/06/23 11:28:37;;;;;;;1.97;1.33;;;;;;;;;;5013553;28;20033;-51
2021/06/23 11:31:09;;;;;;;3.97;1.50;;;;;;;;;;5013579;28;20030;-51
2021/06/23 11:33:39;;;;;;;2.60;1.70;;;;;;;;;;5013479;28;20022;-51
2021/06/23 11:36:07;;;;;;;3.10;1.63;;;;;;;;;;5013540;28;20033;-51
2021/06/23 11:38:34;;;;;;;4.27;1.40;;;;;;;;;;5013456;28;20030;-51
2021/06/23 11:41:15;;;;;;;4.13;1.83;;;;;;;;;;5012965;28;20048;-51
2021/06/23 11:43:42;;;;;;;7.17;1.50;;;;;;;;;;5014613;28;20061;-51
2021/06/23 11:46:09;;;;;;;4.80;1.80;;;;;;;;;;5013204;28;20058;-52
2021/06/23 11:48:37;;;;;;;2.90;1.43;;;;;;;;;;5013347;28;20060;-51
2021/06/23 11:51:05;;;;;;;2.50;1.40;;;;;;;;;;5013455;28;20389;-51
2021/06/23 11:53:32;;;;;;;5.50;2.70;;;;;;;;;;5013205;28;20050;-52
2021/06/23 11:55:59;;;;;;;7.43;1.70;;;;;;;;;;5013078;28;20044;-52
2021/06/23 11:58:26;;;;;;;4.40;2.07;;;;;;;;;;5013171;28;20477;-51
2021/06/23 12:00:53;;;;;;;2.97;1.40;;;;;;;;;;5012996;28;20389;-51
2021/06/23 12:03:20;;;;;;;2.70;1.50;;;;;;;;;;5013024;28;20026;-51
2021/06/23 12:05:48;;;;;;;3.97;1.63;;;;;;;;;;5013044;28;20026;-51
2021/06/23 12:08:16;;;;;;;6.53;2.00;;;;;;;;;;5013035;28;20053;-51
2021/06/23 12:10:43;;;;;;;6.50;2.43;;;;;;;;;;5013013;28;20465;-51
2021/06/23 12:13:11;;;;;;;2.80;1.90;;;;;;;;;;5012891;28;20034;-51
2021/06/23 12:15:38;;;;;;;4.23;1.57;;;;;;;;;;5012995;28;20485;-51
2021/06/23 12:18:06;;;;;;;2.53;1.50;;;;;;;;;;5012878;28;20113;-52
2021/06/23 12:20:34;;;;;;;4.17;2.13;;;;;;;;;;5012708;28;20418;-51
2021/06/23 12:23:03;;;;;;;5.23;1.83;;;;;;;;;;5013025;28;20033;-52
2021/06/23 12:25:38;;;;;;;9.37;1.77;;;;;;;;;;5012831;28;20037;-52
2021/06/23 12:28:06;;;;;;;2.92;1.70;;;;;;;;;;5012790;28;20551;-51
2021/06/23 12:30:33;;;;;;;4.63;1.83;;;;;;;;;;5012845;28;20393;-51
2021/06/23 12:33:03;;;;;;;2.87;1.90;;;;;;;;;;5012983;28;20385;-52
2021/06/23 12:35:31;;;;;;;4.00;2.30;;;;;;;;;;5013076;28;20026;-52
2021/06/23 12:37:58;;;;;;;3.77;2.10;;;;;;;;;;5012849;28;20332;-51
2021/06/23 12:40:26;;;;;;;4.80;2.20;;;;;;;;;;5012753;28;20030;-52
2021/06/23 12:42:53;;;;;;;8.33;2.17;;;;;;;;;;5013997;28;20050;-51
2021/06/23 12:45:19;;;;;;;4.50;2.40;;;;;;;;;;5012597;28;20087;-51
2021/06/23 12:47:46;;;;;;;6.47;2.67;;;;;;;;;;5012589;28;20075;-52
2021/06/23 12:50:17;;;;;;;6.23;2.80;;;;;;;;;;5012602;28;20018;-51
2021/06/23 12:52:45;;;;;;;14.53;4.60;;;;;;;;;;5012603;28;20109;-51
2021/06/23 12:55:12;;;;;;;3.43;2.37;;;;;;;;;;5012313;28;20084;-52
2021/06/23 12:57:38;;;;;;;8.80;2.50;;;;;;;;;;5012636;28;20120;-52
2021/06/23 13:00:07;;;;;;;8.00;2.27;;;;;;;;;;5012426;28;20045;-51
2021/06/23 13:02:35;;;;;;;6.97;2.87;;;;;;;;;;5012576;28;20084;-51
2021/06/23 13:05:03;;;;;;;4.90;2.50;;;;;;;;;;5012347;28;20473;-51
2021/06/23 13:07:30;;;;;;;4.87;2.67;;;;;;;;;;5012493;28;20025;-51
2021/06/23 13:09:57;;;;;;;7.13;2.93;;;;;;;;;;5012504;28;20033;-51
2021/06/23 13:12:24;;;;;;;4.93;2.77;;;;;;;;;;5012386;28;20101;-51
2021/06/23 13:14:51;;;;;;;5.00;3.00;;;;;;;;;;5012317;28;20029;-51
2021/06/23 13:17:18;;;;;;;6.87;3.50;;;;;;;;;;5012741;28;20061;-51
2021/06/23 13:19:45;;;;;;;4.70;3.37;;;;;;;;;;5015721;28;20053;-52
2021/06/23 13:22:12;;;;;;;4.30;2.97;;;;;;;;;;5015782;28;20018;-52
2021/06/23 13:24:39;;;;;;;8.63;4.00;;;;;;;;;;4998187;28;20100;-52
2021/06/23 13:27:07;;;;;;;9.93;3.93;;;;;;;;;;5015787;28;20079;-52
2021/06/23 13:29:34;;;;;;;5.60;3.23;;;;;;;;;;5016002;28;20022;-51
2021/06/23 13:32:01;;;;;;;5.10;3.40;;;;;;;;;;5015629;28;20037;-51
2021/06/23 13:34:28;;;;;;;13.13;4.07;;;;;;;;;;5015732;28;20030;-52
2021/06/23 13:36:54;;;;;;;5.67;3.60;;;;;;;;;;5015531;28;20034;-52
2021/06/23 13:39:21;;;;;;;6.40;3.37;;;;;;;;;;5015678;28;20065;-52
2021/06/23 13:41:48;;;;;;;4.20;3.00;;;;;;;;;;5016166;28;20021;-52
2021/06/23 13:44:15;;;;;;;7.20;3.77;;;;;;;;;;5015359;28;20112;-52
2021/06/23 13:46:41;;;;;;;9.50;3.60;;;;;;;;;;5015388;28;20038;-51
2021/06/23 13:49:08;;;;;;;9.23;3.97;;;;;;;;;;5015450;28;20448;-51
2021/06/23 13:51:35;;;;;;;5.87;3.67;;;;;;;;;;5015501;28;20030;-51
2021/06/23 13:54:02;;;;;;;7.63;4.00;;;;;;;;;;5015147;28;20033;-52
2021/06/23 13:56:29;;;;;;;8.90;3.97;;;;;;;;;;5015263;28;20377;-51
2021/06/23 13:59:05;;;;;;;6.27;4.00;;;;;;;;;;5015419;28;20112;-52
2021/06/23 14:01:39;;;;;;;5.10;3.43;;;;;;;;;;5015069;28;20076;-52
2021/06/23 14:04:08;;;;;;;5.20;3.30;;;;;;;;;;5014980;28;20056;-51
2021/06/23 14:06:40;;;;;;;7.20;3.47;;;;;;;;;;5014836;28;20030;-51
2021/06/23 14:09:16;;;;;;;8.17;3.17;;;;;;;;;;5014769;28;20420;-52
2021/06/23 14:11:50;;;;;;;5.27;3.50;;;;;;;;;;5015025;28;20029;-52
2021/06/23 14:14:17;;;;;;;7.67;3.93;;;;;;;;;;5014533;28;20029;-52
2021/06/23 14:16:57;;;;;;;8.53;4.00;;;;;;;;;;5014829;28;20114;-51
2021/06/23 14:19:29;;;;;;;8.27;4.20;;;;;;;;;;5014496;28;20456;-52
2021/06/23 14:22:00;;;;;;;11.80;3.90;;;;;;;;;;5014833;28;20105;-51
2021/06/23 14:24:40;;;;;;;10.53;4.23;;;;;;;;;;5014730;28;20080;-51
2021/06/23 14:27:16;;;;;;;7.80;3.50;;;;;;;;;;4995867;28;20496;-52
2021/06/23 14:29:55;;;;;;;10.40;3.70;;;;;;;;;;5013538;28;20026;-51
2021/06/23 14:32:32;;;;;;;6.47;3.97;;;;;;;;;;5014575;28;20049;-52
2021/06/23 14:35:26;;;;;;;11.83;3.70;;;;;;;;;;5012610;28;20042;-51
2021/06/23 14:38:05;;;;;;;7.33;2.73;;;;;;;;;;4973066;28;20529;-53
2021/06/23 14:40:46;;;;;;;6.77;2.57;;;;;;;;;;4972920;28;20043;-53
2021/06/23 14:43:16;;;;;;;6.47;2.43;;;;;;;;;;4983124;28;20054;-54
2021/06/23 14:45:55;;;;;;;7.57;2.50;;;;;;;;;;4992318;28;20081;-54
2021/06/23 14:48:30;;;;;;;4.27;2.37;;;;;;;;;;4992285;28;20595;-54
2021/06/23 14:51:07;;;;;;;4.97;2.40;;;;;;;;;;4992137;28;20034;-54
2021/06/23 14:53:55;;;;;;;4.43;2.13;;;;;;;;;;4992278;28;20062;-54
2021/06/23 14:56:38;;;;;;;3.07;1.80;;;;;;;;;;4992391;28;20048;-54
2021/06/23 14:59:13;;;;;;;5.63;2.50;;;;;;;;;;4992088;28;20045;-54
2021/06/23 15:01:43;;;;;;;3.50;1.90;;;;;;;;;;4992272;28;20042;-54
2021/06/23 15:04:25;;;;;;;5.77;2.33;;;;;;;;;;4992059;28;20038;-54
2021/06/23 15:07:00;;;;;;;5.73;2.20;;;;;;;;;;4991940;28;20034;-54
2021/06/23 15:09:40;;;;;;;8.60;2.33;;;;;;;;;;5008822;28;20057;-54
2021/06/23 15:12:08;;;;;;;7.23;2.47;;;;;;;;;;5013938;28;20018;-54